Latest Weather Observations for Beaudesert AWS

IDQ60801

Issued at 11:02 pm EST Sunday 26 April 2015 (issued every 30 minutes, with the page automatically refreshed every 10 minutes)

About weather observations | Map of weather stations | Latest weather observations for QLD | Other Formats
Station Details ID: 040983 Name: BEAUDESERT DRUMLEY STREET Lat: -27.97 Lon: 152.99 Height: 47.81 m
Data from the previous 72 hours. | See also: Recent months at Beaudesert AWS
Date/Time
EST
Temp
°C
App
Temp
°C
Dew
Point
Rel
Hum
%
Delta-T
°C
Wind Press
QNH
hPa
Press
MSL
hPa
Rain
since 9 am
mm
Dir
 
Spd
km/h
Gust
km/h
Spd
kts
Gust
kts
26/11:00pm 9.3 8.3 5.7 78 1.6 CALM 0 0 0 0 1016.4 1016.3 0.0
26/10:30pm 9.9 9.0 5.9 76 1.8 CALM 0 4 0 2 1016.6 1016.5 0.0
26/10:00pm 11.1 9.0 6.0 71 2.4 NE 6 7 3 4 1016.6 1016.5 0.0
26/09:30pm 11.8 11.0 6.5 70 2.5 CALM 0 0 0 0 1016.2 1016.1 0.0
26/09:00pm 13.6 12.0 6.2 61 3.5 ENE 4 6 2 3 1016.0 1015.9 0.0
26/08:30pm 13.6 12.7 6.2 61 3.5 CALM 0 0 0 0 1015.9 1015.8 0.0
26/08:00pm 15.1 12.6 6.4 56 4.2 WSW 9 13 5 7 1015.4 1015.3 0.0
26/07:30pm 16.0 13.0 6.2 52 4.8 SW 11 20 6 11 1015.2 1015.1 0.0
26/07:00pm 16.4 13.5 6.5 52 4.9 W 11 19 6 10 1014.4 1014.3 0.0
26/06:30pm 15.5 12.8 5.7 52 4.7 W 9 13 5 7 1014.3 1014.2 0.0
26/06:00pm 16.7 14.9 5.6 48 5.4 WSW 4 7 2 4 1013.9 1013.7 0.0
26/05:30pm 17.9 16.4 4.8 42 6.3 W 2 6 1 3 1013.2 1013.0 0.0
26/05:00pm 19.7 17.0 5.4 39 7.0 SW 9 17 5 9 1012.6 1012.4 0.0
26/04:30pm 20.5 17.0 5.3 37 7.5 WSW 13 22 7 12 1012.0 1011.8 0.0
26/04:00pm 20.9 16.0 4.9 35 7.9 WSW 20 30 11 16 1011.4 1011.2 0.0
26/03:30pm 21.3 15.9 4.4 33 8.2 W 22 32 12 17 1011.2 1011.0 0.0
26/03:00pm 21.8 16.9 3.9 31 8.7 WSW 19 26 10 14 1010.8 1010.6 0.0
26/02:30pm 22.2 17.7 4.3 31 8.8 WSW 17 28 9 15 1010.6 1010.4 0.0
26/02:00pm 21.8 16.3 3.9 31 8.7 W 22 37 12 20 1010.1 1009.9 0.0
26/01:30pm 22.2 17.4 4.7 32 8.6 WSW 19 30 10 16 1010.0 1009.8 0.0
26/01:00pm 22.0 16.6 4.6 32 8.6 WSW 22 35 12 19 1010.2 1010.0 0.0
26/12:30pm 21.9 15.9 3.6 30 8.8 WSW 24 35 13 19 1010.5 1010.3 0.0
26/12:00pm 21.5 15.6 3.7 31 8.6 WSW 24 35 13 19 1010.3 1010.1 0.0
26/11:30am 20.9 14.6 3.6 32 8.3 W 26 46 14 25 1010.4 1010.2 0.0
26/11:27am 20.9 14.3 4.0 33 8.2 W 28 46 15 25 1010.4 1010.2 0.0
26/11:00am 20.9 14.0 4.5 34 8.0 WSW 30 43 16 23 1011.2 1011.0 0.0
26/10:30am 20.4 16.3 4.4 35 7.7 W 15 24 8 13 1011.6 1011.4 0.0
26/10:00am 19.5 15.0 4.0 36 7.4 W 17 26 9 14 1011.8 1011.6 0.0
26/09:30am 19.2 14.4 4.9 39 6.9 WSW 19 28 10 15 1012.2 1012.0 0.0
26/09:00am 18.9 14.8 6.1 43 6.3 WSW 17 28 9 15 1012.1 1011.9 0.0
26/08:30am 17.8 11.9 5.7 45 5.9 SW 26 39 14 21 1012.3 1012.1 0.0
26/08:00am 16.8 15.2 8.0 56 4.5 W 6 9 3 5 1012.1 1011.9 0.0
26/07:30am 13.8 13.3 10.6 81 1.7 SE 4 6 2 3 1011.8 1011.6 0.0
26/07:00am 10.6 10.2 9.8 95 0.4 N 2 6 1 3 1011.5 1011.3 0.0
26/06:30am 7.3 6.4 6.2 93 0.5 CALM 0 0 0 0 1011.3 1011.1 0.0
26/06:00am 8.1 7.5 7.2 94 0.4 CALM 0 2 0 1 1010.8 1010.6 0.0
26/05:30am 8.3 7.7 7.2 93 0.5 CALM 0 4 0 2 1010.6 1010.4 0.0
26/05:00am 8.6 8.1 7.7 94 0.4 CALM 0 0 0 0 1010.4 1010.2 0.0
26/04:30am 8.8 7.9 7.6 92 0.6 S 2 7 1 4 1010.2 1010.0 0.0
26/04:00am 9.7 9.4 8.6 93 0.5 CALM 0 0 0 0 1009.7 1009.5 0.0
26/03:30am 10.1 9.9 8.9 92 0.6 CALM 0 0 0 0 1009.5 1009.3 0.0
26/03:00am 10.2 9.6 8.8 91 0.7 SSW 2 4 1 2 1009.4 1009.2 0.0
26/02:30am 11.8 11.7 10.7 93 0.6 ENE 2 4 1 2 1009.3 1009.1 0.0
26/02:00am 12.2 11.8 11.1 93 0.6 NE 4 6 2 3 1009.3 1009.1 0.0
26/01:30am 11.2 11.1 9.3 88 1.0 CALM 0 0 0 0 1009.1 1008.9 0.0
26/01:00am 12.7 13.1 11.1 90 0.8 CALM 0 0 0 0 1009.1 1008.9 0.0
26/12:30am 13.1 13.4 11.0 87 1.1 CALM 0 0 0 0 1009.3 1009.1 0.0
26/12:00am 14.2 14.6 11.4 83 1.5 CALM 0 0 0 0 1009.3 1009.1 0.0
 
Date/Time
EST
Temp
°C
App
Temp
°C
Dew
Point
Rel
Hum
%
Delta-T
°C
Wind Press
QNH
hPa
Press
MSL
hPa
Rain
since 9 am
mm
Dir
 
Spd
km/h
Gust
km/h
Spd
kts
Gust
kts
25/11:30pm 15.3 15.3 12.4 83 1.6 ESE 4 4 2 2 1009.5 1009.3 0.0
25/11:00pm 15.4 15.9 12.7 84 1.5 SE 2 4 1 2 1009.7 1009.5 0.0
25/10:30pm 15.3 16.2 13.0 86 1.3 CALM 0 2 0 1 1009.8 1009.6 0.0
25/10:00pm 14.5 15.2 12.2 86 1.3 CALM 0 2 0 1 1009.7 1009.5 0.0
25/09:30pm 15.2 15.9 12.3 83 1.6 CALM 0 0 0 0 1009.7 1009.5 0.0
25/09:00pm 15.6 16.3 12.2 80 1.9 CALM 0 0 0 0 1009.8 1009.6 0.0
25/08:30pm 16.6 17.5 12.9 79 2.1 CALM 0 0 0 0 1009.7 1009.5 0.0
25/08:00pm 17.7 18.7 13.2 75 2.5 CALM 0 0 0 0 1009.6 1009.4 0.0
25/07:30pm 17.2 18.1 12.9 76 2.4 CALM 0 0 0 0 1009.4 1009.2 0.0
25/07:00pm 18.6 19.5 13.0 70 3.2 CALM 0 0 0 0 1009.0 1008.8 0.0
25/06:30pm 19.1 20.0 12.8 67 3.5 CALM 0 0 0 0 1008.5 1008.3 0.0
25/06:00pm 20.2 20.3 11.4 57 4.9 NE 2 4 1 2 1007.9 1007.7 0.0
25/05:30pm 22.6 21.9 11.4 49 6.3 NE 6 6 3 3 1007.7 1007.5 0.0
25/05:00pm 24.9 24.2 10.0 39 8.2 NNE 4 6 2 3 1007.7 1007.5 0.0
25/04:30pm 27.0 25.9 9.8 34 9.6 N 6 7 3 4 1007.5 1007.3 0.0
25/04:00pm 27.6 26.7 9.4 32 10.1 NNE 4 9 2 5 1007.3 1007.1 0.0
25/03:30pm 27.7 26.2 8.6 30 10.4 N 6 11 3 6 1007.3 1007.1 0.0
25/03:00pm 27.7 26.2 8.6 30 10.5 NW 6 11 3 6 1007.4 1007.2 0.0
25/02:30pm 28.0 26.9 9.8 32 10.2 NW 6 13 3 7 1007.5 1007.3 0.0
25/02:00pm 27.7 26.5 9.5 32 10.1 NW 6 9 3 5 1007.7 1007.5 0.0
25/01:30pm 27.6 26.3 9.9 33 9.9 NW 7 11 4 6 1008.0 1007.8 0.0
25/01:00pm 26.9 24.4 8.4 31 10.1 WNW 11 17 6 9 1008.3 1008.1 0.0
25/12:30pm 26.8 25.3 10.5 36 9.2 NNW 9 19 5 10 1008.7 1008.5 0.0
25/12:00pm 26.3 25.8 12.0 41 8.2 NNW 6 11 3 6 1009.1 1008.9 0.0
25/11:30am 25.8 26.5 13.3 46 7.3 W 2 6 1 3 1009.6 1009.4 0.0
25/11:00am 24.3 25.4 14.7 55 5.7 SSW 2 6 1 3 1010.2 1010.0 0.0
25/10:30am 23.3 24.8 15.6 62 4.6 NNW 2 6 1 3 1010.6 1010.4 0.0
25/10:00am 21.6 23.6 15.9 70 3.4 CALM 0 4 0 2 1011.1 1010.9 0.0
25/09:30am 20.2 21.7 15.8 76 2.6 W 2 6 1 3 1011.5 1011.3 0.0
25/09:00am 17.8 19.1 15.2 85 1.5 SSW 2 4 1 2 1011.7 1011.5 0.0
25/08:30am 15.9 17.0 13.4 85 1.4 CALM 0 0 0 0 1011.7 1011.5 0.0
25/08:00am 14.1 14.5 12.5 90 0.9 SSW 2 4 1 2 1011.7 1011.5 0.0
25/07:30am 13.1 13.7 11.8 92 0.7 CALM 0 4 0 2 1011.4 1011.2 0.0
25/07:00am 12.2 12.6 11.4 95 0.4 CALM 0 0 0 0 1011.0 1010.8 0.0
25/06:30am 11.6 11.8 10.5 93 0.6 CALM 0 0 0 0 1010.7 1010.5 0.0
25/06:00am 12.2 12.6 11.3 94 0.5 CALM 0 0 0 0 1010.5 1010.3 0.0
25/05:30am 12.1 12.4 10.8 92 0.7 CALM 0 0 0 0 1010.4 1010.2 0.0
25/05:00am 12.7 13.2 11.6 93 0.6 CALM 0 0 0 0 1010.1 1009.9 0.0
25/04:30am 13.1 13.3 12.0 93 0.6 E 2 2 1 1 1009.9 1009.7 0.0
25/04:00am 13.2 13.5 12.1 93 0.6 SE 2 4 1 2 1009.8 1009.6 0.0
25/03:30am 13.5 13.9 12.4 93 0.6 SE 2 4 1 2 1009.6 1009.4 0.0
25/03:00am 13.6 14.3 12.3 92 0.7 CALM 0 0 0 0 1009.6 1009.4 0.0
25/02:30am 14.1 14.3 13.0 93 0.6 ESE 4 6 2 3 1009.8 1009.6 0.0
25/02:00am 14.2 14.4 13.1 93 0.6 SE 4 4 2 2 1010.0 1009.8 0.0
25/01:30am 14.3 14.5 13.2 93 0.6 SE 4 6 2 3 1010.0 1009.8 0.0
25/01:00am 14.5 15.1 13.2 92 0.7 SSE 2 4 1 2 1010.0 1009.8 0.0
25/12:30am 14.8 15.2 13.7 93 0.6 SE 4 4 2 2 1010.1 1009.9 0.0
25/12:00am 14.7 15.8 13.6 93 0.6 CALM 0 2 0 1 1010.3 1010.1 0.0
 
Date/Time
EST
Temp
°C
App
Temp
°C
Dew
Point
Rel
Hum
%
Delta-T
°C
Wind Press
QNH
hPa
Press
MSL
hPa
Rain
since 9 am
mm
Dir
 
Spd
km/h
Gust
km/h
Spd
kts
Gust
kts
24/11:30pm 14.3 15.2 13.0 92 0.7 CALM 0 0 0 0 1010.3 1010.1 0.0
24/11:00pm 14.2 15.1 12.9 92 0.7 CALM 0 0 0 0 1010.3 1010.1 0.0
24/10:30pm 14.2 15.0 12.4 89 1.0 CALM 0 0 0 0 1010.3 1010.1 0.0
24/10:00pm 14.6 15.5 12.8 89 1.0 CALM 0 0 0 0 1010.4 1010.2 0.0
24/09:30pm 15.1 16.1 13.3 89 1.0 CALM 0 0 0 0 1010.5 1010.3 0.0
24/09:00pm 15.6 16.7 13.6 88 1.1 CALM 0 0 0 0 1010.3 1010.1 0.0
24/08:30pm 15.5 16.4 13.0 85 1.4 CALM 0 0 0 0 1010.0 1009.8 0.0
24/08:00pm 16.0 17.1 13.5 85 1.4 CALM 0 0 0 0 1009.7 1009.5 0.0
24/07:30pm 17.1 18.3 13.8 81 1.9 CALM 0 0 0 0 1009.5 1009.3 0.0
24/07:00pm 18.1 19.4 14.0 77 2.4 CALM 0 0 0 0 1009.0 1008.8 0.0
24/06:30pm 19.2 20.2 14.2 73 2.9 SSW 2 4 1 2 1008.6 1008.4 0.0
24/06:00pm 21.2 22.1 13.9 63 4.2 NE 2 4 1 2 1008.2 1008.0 0.0
24/05:30pm 23.1 23.5 13.8 55 5.4 ENE 4 6 2 3 1007.8 1007.6 0.0
24/05:00pm 25.0 25.2 12.9 47 7.0 ENE 4 6 2 3 1007.4 1007.2 0.0
24/04:30pm 25.8 26.1 13.3 46 7.3 E 4 6 2 3 1007.3 1007.1 0.0
24/04:00pm 26.5 27.4 12.9 43 8.0 CALM 0 7 0 4 1007.3 1007.1 0.0
24/03:30pm 26.9 27.9 13.3 43 8.0 CALM 0 4 0 2 1007.4 1007.2 0.0
24/03:00pm 26.6 26.4 13.0 43 8.0 WNW 6 7 3 4 1007.4 1007.2 0.0
24/02:30pm 26.5 26.1 12.5 41 8.1 WSW 6 15 3 8 1007.5 1007.3 0.0
24/02:00pm 26.6 27.1 14.0 46 7.5 WNW 4 11 2 6 1007.7 1007.5 0.0
24/01:30pm 25.6 25.9 14.4 50 6.7 W 6 9 3 5 1008.0 1007.8 0.0
24/01:00pm 25.7 26.6 15.1 52 6.4 NW 4 7 2 4 1008.2 1008.0 0.0
24/12:30pm 24.8 24.9 14.0 51 6.4 WNW 6 11 3 6 1008.7 1008.5 0.0
24/12:00pm 24.4 25.5 15.6 58 5.3 NW 4 9 2 5 1009.4 1009.2 0.0
24/11:30am 22.8 23.7 15.1 62 4.6 SSW 4 11 2 6 1010.0 1009.8 0.0
24/11:00am 22.3 23.3 15.4 65 4.1 WNW 4 9 2 5 1010.7 1010.5 0.0
24/10:30am 20.9 22.6 15.2 70 3.4 CALM 0 2 0 1 1010.9 1010.7 0.0
24/10:00am 19.2 20.4 14.9 76 2.5 WNW 2 4 1 2 1011.0 1010.8 0.0
24/09:30am 17.2 18.6 14.5 84 1.6 CALM 0 2 0 1 1011.3 1011.1 0.0
24/09:00am 16.1 17.3 13.9 87 1.2 CALM 0 0 0 0 1011.6 1011.4 0.0
24/08:30am 15.3 16.4 13.5 89 1.0 CALM 0 0 0 0 1011.5 1011.3 0.0
24/08:00am 14.4 15.3 13.0 91 0.8 CALM 0 0 0 0 1011.3 1011.1 0.0
24/07:30am 13.9 14.3 12.5 91 0.8 SSW 2 2 1 1 1011.5 1011.3 0.0
24/07:00am 13.6 14.4 12.5 93 0.6 CALM 0 0 0 0 1011.0 1010.8 0.0
24/06:30am 12.9 13.1 12.0 94 0.5 SE 2 6 1 3 1010.8 1010.6 0.0
24/06:00am 12.4 12.9 11.5 94 0.5 CALM 0 0 0 0 1010.6 1010.4 0.0
24/05:30am 11.6 11.4 10.5 93 0.6 WSW 2 4 1 2 1010.6 1010.4 0.0
24/05:00am 12.4 12.8 11.3 93 0.6 CALM 0 0 0 0 1010.0 1009.8 0.0
24/04:30am 11.9 12.1 10.5 91 0.7 CALM 0 0 0 0 1010.1 1009.9 0.0
24/04:00am 12.9 12.7 11.8 93 0.6 E 4 4 2 2 1010.1 1009.9 0.0
24/03:30am 12.6 13.0 11.3 92 0.7 CALM 0 0 0 0 1010.3 1010.1 0.0
24/03:00am 12.2 12.4 10.4 89 0.9 CALM 0 0 0 0 1010.2 1010.0 0.0
24/02:30am 13.2 13.8 11.8 91 0.7 CALM 0 0 0 0 1010.4 1010.2 0.0
24/02:00am 13.3 13.5 11.9 91 0.8 SE 2 4 1 2 1010.8 1010.6 0.0
24/01:30am 13.3 13.5 11.7 90 0.9 SE 2 2 1 1 1010.7 1010.5 0.0
24/01:00am 13.3 13.8 11.7 90 0.9 CALM 0 0 0 0 1011.0 1010.8 0.0
24/12:30am 13.5 13.7 11.7 89 1.0 S 2 4 1 2 1011.3 1011.1 0.0
24/12:00am 13.8 13.7 12.2 90 0.9 SSE 4 4 2 2 1011.5 1011.3 0.0
 
Date/Time
EST
Temp
°C
App
Temp
°C
Dew
Point
Rel
Hum
%
Delta-T
°C
Wind Press
QNH
hPa
Press
MSL
hPa
Rain
since 9 am
mm
Dir
 
Spd
km/h
Gust
km/h
Spd
kts
Gust
kts
23/11:30pm 14.0 14.8 12.4 90 0.9 CALM 0 2 0 1 1011.4 1011.2 0.0

Other Formats:

Comma delimited format used in spreadsheet applications
http://www.bom.gov.au/fwo/IDQ60801/IDQ60801.95575.axf

JavaScript Object Notation format (JSON) in row-major order
http://www.bom.gov.au/fwo/IDQ60801/IDQ60801.95575.json